sensor_id;sensor_type;location;lat;lon;timestamp;temperature;humidity
19025;DHT22;9645;51.448;6.260;2023-11-19T11:09:43;17.80;1.00
19025;DHT22;9645;51.448;6.260;2023-11-19T11:12:12;17.00;99.90
19025;DHT22;9645;51.448;6.260;2023-11-19T11:14:40;16.70;1.00
19025;DHT22;9645;51.448;6.260;2023-11-19T11:17:09;16.40;1.00
19025;DHT22;9645;51.448;6.260;2023-11-19T11:19:42;15.90;93.00
19025;DHT22;9645;51.448;6.260;2023-11-19T11:22:11;15.30;1.00
19025;DHT22;9645;51.448;6.260;2023-11-19T11:24:55;15.20;1.00
19025;DHT22;9645;51.448;6.260;2023-11-19T11:27:43;15.50;1.00
19025;DHT22;9645;51.448;6.260;2023-11-19T11:30:24;16.40;1.00
19025;DHT22;9645;51.448;6.260;2023-11-19T11:32:59;17.70;1.00
19025;DHT22;9645;51.448;6.260;2023-11-19T11:35:40;18.70;99.90
19025;DHT22;9645;51.448;6.260;2023-11-19T11:38:14;18.80;50.00
19025;DHT22;9645;51.448;6.260;2023-11-19T11:40:42;18.40;1.00
19025;DHT22;9645;51.448;6.260;2023-11-19T11:46:09;16.20;1.00
19025;DHT22;9645;51.448;6.260;2023-11-19T11:48:58;15.70;1.00
19025;DHT22;9645;51.448;6.260;2023-11-19T11:54:30;14.60;1.00
19025;DHT22;9645;51.448;6.260;2023-11-19T11:57:08;14.40;1.00
19025;DHT22;9645;51.448;6.260;2023-11-19T11:59:45;14.20;1.00
19025;DHT22;9645;51.448;6.260;2023-11-19T12:02:14;14.30;1.00
19025;DHT22;9645;51.448;6.260;2023-11-19T12:04:42;14.30;1.00
19025;DHT22;9645;51.448;6.260;2023-11-19T12:07:15;14.30;11.10
19025;DHT22;9645;51.448;6.260;2023-11-19T12:09:47;14.10;18.90
19025;DHT22;9645;51.448;6.260;2023-11-19T12:12:19;13.90;99.90
19025;DHT22;9645;51.448;6.260;2023-11-19T12:15:05;13.80;99.90
19025;DHT22;9645;51.448;6.260;2023-11-19T12:17:50;13.60;99.90
19025;DHT22;9645;51.448;6.260;2023-11-19T12:20:37;13.40;99.90
19025;DHT22;9645;51.448;6.260;2023-11-19T12:23:05;13.30;99.90
19025;DHT22;9645;51.448;6.260;2023-11-19T12:25:35;13.30;99.90
19025;DHT22;9645;51.448;6.260;2023-11-19T12:28:03;13.30;99.90
19025;DHT22;9645;51.448;6.260;2023-11-19T12:30:31;13.40;99.90
19025;DHT22;9645;51.448;6.260;2023-11-19T12:32:58;13.40;99.90
19025;DHT22;9645;51.448;6.260;2023-11-19T12:35:25;13.30;99.90
19025;DHT22;9645;51.448;6.260;2023-11-19T12:37:52;13.30;99.90
19025;DHT22;9645;51.448;6.260;2023-11-19T12:40:21;13.20;99.90
19025;DHT22;9645;51.448;6.260;2023-11-19T12:42:51;13.20;99.90
19025;DHT22;9645;51.448;6.260;2023-11-19T12:45:18;13.30;99.90
19025;DHT22;9645;51.448;6.260;2023-11-19T12:47:47;13.40;99.90
19025;DHT22;9645;51.448;6.260;2023-11-19T12:50:15;13.40;99.90
19025;DHT22;9645;51.448;6.260;2023-11-19T12:52:55;13.40;99.90
19025;DHT22;9645;51.448;6.260;2023-11-19T12:55:26;13.30;99.90
19025;DHT22;9645;51.448;6.260;2023-11-19T12:57:55;13.50;99.90
19025;DHT22;9645;51.448;6.260;2023-11-19T13:00:24;13.50;99.90
19025;DHT22;9645;51.448;6.260;2023-11-19T13:02:52;13.40;99.90
19025;DHT22;9645;51.448;6.260;2023-11-19T13:05:24;13.30;99.90
19025;DHT22;9645;51.448;6.260;2023-11-19T13:07:58;13.20;99.90
19025;DHT22;9645;51.448;6.260;2023-11-19T13:10:26;13.20;99.90
19025;DHT22;9645;51.448;6.260;2023-11-19T13:13:07;13.20;99.90
19025;DHT22;9645;51.448;6.260;2023-11-19T13:15:35;13.20;99.90
19025;DHT22;9645;51.448;6.260;2023-11-19T13:18:03;13.20;99.90
19025;DHT22;9645;51.448;6.260;2023-11-19T13:20:30;13.10;99.90
19025;DHT22;9645;51.448;6.260;2023-11-19T13:22:59;13.10;99.90
19025;DHT22;9645;51.448;6.260;2023-11-19T13:25:26;13.10;99.90
19025;DHT22;9645;51.448;6.260;2023-11-19T13:27:54;13.00;99.90
19025;DHT22;9645;51.448;6.260;2023-11-19T13:30:23;13.00;99.90
19025;DHT22;9645;51.448;6.260;2023-11-19T13:32:50;13.10;99.90
